Aobamaru — JD3334 — position and weather

sailwx.info

Track history (hours):
 
Tides and Currents Weather Stations Pressure Air Temp Water Temp Dewpoint Dewpoint Depression Visibility Wind Speed Wind Dir Waves Ship Positions

Aobamaru

Last reported at 2018-Apr-25 06:30 UTC. Time now 2018-Apr-25 06:37 UTC.
Position N 35°17' E 139°41'.

Length 38 m; draft 3 m.

Type: Tug. MMSI: 431003385.

Date/timePositionNaut miles runAvg speedWind from/ knotsBaromVisibWave heightAir tempDewpointWater temp
2018-Apr-25 06:30N 35°17' E 139°41'0 0.0
2018-Apr-25 06:00N 35°17' E 139°41'0 0.0
2018-Apr-25 05:30N 35°17' E 139°41'0 0.0
2018-Apr-25 05:00N 35°17' E 139°41'0 0.0
2018-Apr-25 04:30N 35°17' E 139°41'0 0.0
2018-Apr-25 04:00N 35°17' E 139°41'0 0.0
2018-Apr-25 03:30N 35°17' E 139°41'0 0.0
2018-Apr-25 03:00N 35°17' E 139°41'3 5.1
2018-Apr-25 02:30N 35°19' E 139°42'5 9.5
2018-Apr-25 02:00N 35°24' E 139°42'4 8.8
2018-Apr-25 01:31N 35°27' E 139°46'2 4.5
2018-Apr-25 01:00N 35°28' E 139°49'4 8.4
2018-Apr-25 00:30N 35°31' E 139°53'713.1
2018-Apr-25 00:00N 35°34' E 140°00'3 6.3
2018-Apr-24 23:30N 35°35' E 140°04'0 0.0
2018-Apr-24 23:01N 35°35' E 140°04'4 7.3
2018-Apr-24 22:30N 35°32' E 140°00'510.7
2018-Apr-24 22:00N 35°29' E 139°55'611.2
2018-Apr-24 21:30N 35°25' E 139°50'510.9
2018-Apr-24 21:00N 35°21' E 139°46'5 9.1
2018-Apr-24 20:31N 35°18' E 139°42'1 2.8
2018-Apr-24 20:01N 35°17' E 139°41'0 0.0
2018-Apr-24 19:30N 35°17' E 139°41'0 0.0
2018-Apr-24 19:01N 35°17' E 139°41'0 0.0
2018-Apr-24 18:30N 35°17' E 139°41'0 0.0
2018-Apr-24 18:00N 35°17' E 139°41'0 0.0
2018-Apr-24 17:31N 35°17' E 139°41'0 0.0
2018-Apr-24 17:00N 35°17' E 139°41'0 0.0
2018-Apr-24 16:31N 35°17' E 139°41'0 0.0
2018-Apr-24 16:00N 35°17' E 139°41'0 0.0
2018-Apr-24 15:30N 35°17' E 139°41'0 0.0
2018-Apr-24 15:00N 35°17' E 139°41'0 0.0
2018-Apr-24 14:31N 35°17' E 139°41'0 0.0
2018-Apr-24 14:00N 35°17' E 139°41'0 0.0
2018-Apr-24 13:30N 35°17' E 139°41'0 0.0
2018-Apr-24 13:01N 35°17' E 139°41'0 0.0
2018-Apr-24 12:30N 35°17' E 139°41'0 0.0
2018-Apr-24 12:00N 35°17' E 139°41'0 0.0
2018-Apr-24 11:31N 35°17' E 139°41'0 0.0
2018-Apr-24 11:01N 35°17' E 139°41'0 0.0
2018-Apr-24 10:30N 35°17' E 139°41'0 0.0
2018-Apr-24 10:01N 35°17' E 139°41'0 0.0
2018-Apr-24 09:31N 35°17' E 139°41'0 0.0
2018-Apr-24 09:01N 35°17' E 139°41'0 0.0
2018-Apr-24 08:31N 35°17' E 139°41'0 0.0
2018-Apr-24 08:00N 35°17' E 139°41'0 0.0
2018-Apr-24 07:30N 35°17' E 139°41'0 0.0
2018-Apr-24 07:01N 35°17' E 139°41'0 0.0
2018-Apr-24 06:30N 35°17' E 139°41'0 0.0
2018-Apr-24 06:00N 35°17' E 139°41'0 0.0
2018-Apr-24 05:31N 35°17' E 139°41'0 0.0
2018-Apr-24 05:00N 35°17' E 139°41'0 0.0
2018-Apr-24 04:30N 35°17' E 139°41'0 0.0
2018-Apr-24 04:00N 35°17' E 139°41'0 0.0
2018-Apr-24 03:30N 35°17' E 139°41'0 0.0
2018-Apr-24 03:00N 35°17' E 139°41'0 0.0
2018-Apr-24 02:31N 35°17' E 139°41'1 1.2
2018-Apr-24 02:00N 35°17' E 139°41'510.6
2018-Apr-24 01:30N 35°23' E 139°41'4 7.3
2018-Apr-24 01:00N 35°19' E 139°43'612.4
2018-Apr-24 00:30N 35°14' E 139°47'4 8.1
2018-Apr-24 00:00N 35°10' E 139°47'4 7.3
2018-Apr-23 23:30N 35°13' E 139°44'1 1.4
2018-Apr-23 23:00N 35°13' E 139°44'4 7.7
2018-Apr-23 22:31N 35°17' E 139°44'3 5.2
2018-Apr-23 22:00N 35°17' E 139°41'0 0.0
2018-Apr-23 21:30N 35°17' E 139°41'0 0.0
2018-Apr-23 21:01N 35°17' E 139°41'0 0.0
2018-Apr-23 20:30N 35°17' E 139°41'0 0.0
2018-Apr-23 20:01N 35°17' E 139°41'0 0.0
2018-Apr-23 19:30N 35°17' E 139°41'0 0.0
2018-Apr-23 19:01N 35°17' E 139°41'0 0.0
2018-Apr-23 18:31N 35°17' E 139°41'0 0.0
2018-Apr-23 18:00N 35°17' E 139°41'0 0.0
2018-Apr-23 17:31N 35°17' E 139°41'0 0.0
2018-Apr-23 17:00N 35°17' E 139°41'0 0.0
2018-Apr-23 16:31N 35°17' E 139°41'0 0.0
2018-Apr-23 16:01N 35°17' E 139°41'0 0.0
2018-Apr-23 15:30N 35°17' E 139°41'0 0.0
2018-Apr-23 15:01N 35°17' E 139°41'0 0.0
2018-Apr-23 14:30N 35°17' E 139°41'0 0.0
2018-Apr-23 14:00N 35°17' E 139°41'0 0.0
2018-Apr-23 13:30N 35°17' E 139°41'0 0.0
2018-Apr-23 13:00N 35°17' E 139°41'0 0.0
2018-Apr-23 12:30N 35°17' E 139°41'0 0.0
2018-Apr-23 12:00N 35°17' E 139°41'0 0.0
2018-Apr-23 11:30N 35°17' E 139°41'0 0.0
2018-Apr-23 11:00N 35°17' E 139°41'0 0.0
2018-Apr-23 10:30N 35°17' E 139°41'0 0.0
2018-Apr-23 10:01N 35°17' E 139°41'0 0.0
2018-Apr-23 09:30N 35°17' E 139°41'0 0.0
2018-Apr-23 09:00N 35°17' E 139°41'0 0.0
2018-Apr-23 08:30N 35°17' E 139°41'0 0.0
2018-Apr-23 08:00N 35°17' E 139°41'0 0.0
2018-Apr-23 07:30N 35°17' E 139°41'0 0.0
2018-Apr-23 07:00N 35°17' E 139°41'0 0.0
2018-Apr-23 06:30N 35°17' E 139°41'0 0.0
2018-Apr-23 06:00N 35°17' E 139°41'0 0.0
2018-Apr-23 05:31N 35°17' E 139°41'0 0.0
2018-Apr-23 05:00N 35°17' E 139°41'0 0.0
2018-Apr-23 04:31N 35°17' E 139°41'0 0.0
2018-Apr-23 04:00N 35°17' E 139°41'0 0.0
2018-Apr-23 03:30N 35°17' E 139°41'0 0.0
2018-Apr-23 03:01N 35°17' E 139°41'0 0.0
2018-Apr-23 02:31N 35°17' E 139°41'0 0.0
2018-Apr-23 02:00N 35°17' E 139°41'0 0.0
2018-Apr-23 01:31N 35°17' E 139°41'0 0.0
2018-Apr-23 01:00N 35°17' E 139°41'0 0.0
2018-Apr-23 00:30N 35°17' E 139°41'0 0.0
2018-Apr-23 00:01N 35°17' E 139°41'0 0.5
2018-Apr-22 23:31N 35°17' E 139°41'1 2.4
2018-Apr-22 23:00N 35°17' E 139°39'0 0.4
2018-Apr-22 22:30N 35°17' E 139°39'1 2.1
2018-Apr-22 22:01N 35°17' E 139°41'0 0.0
2018-Apr-22 21:31N 35°17' E 139°41'0 0.0
2018-Apr-22 21:00N 35°17' E 139°41'0 0.0
2018-Apr-22 20:30N 35°17' E 139°41'0 0.0
2018-Apr-22 20:00N 35°17' E 139°41'0 0.0
2018-Apr-22 19:30N 35°17' E 139°41'1 1.5
2018-Apr-22 19:01N 35°17' E 139°41'4 8.9
2018-Apr-22 18:31N 35°14' E 139°45'2 4.0
2018-Apr-22 18:00N 35°12' E 139°46'5 9.7
2018-Apr-22 17:30N 35°17' E 139°45'611.5
2018-Apr-22 17:00N 35°22' E 139°42'2 3.1
2018-Apr-22 16:31N 35°23' E 139°40'0 0.1
2018-Apr-22 16:01N 35°23' E 139°40'0 0.0
2018-Apr-22 15:30N 35°23' E 139°40'0 0.0
2018-Apr-22 15:00N 35°23' E 139°40'0 0.0
2018-Apr-22 14:31N 35°23' E 139°40'0 0.0
2018-Apr-22 14:01N 35°23' E 139°40'0 0.0
2018-Apr-22 13:31N 35°23' E 139°40'0 0.0
2018-Apr-22 13:00N 35°23' E 139°40'0 0.0
2018-Apr-22 12:30N 35°23' E 139°40'0 0.0
2018-Apr-22 12:01N 35°23' E 139°40'1 1.7
2018-Apr-22 11:30N 35°22' E 139°41'612.8
2018-Apr-22 11:00N 35°17' E 139°44'3 5.8
2018-Apr-22 10:31N 35°14' E 139°46'611.7
2018-Apr-22 10:00N 35°19' E 139°43'612.9
2018-Apr-22 09:31N 35°26' E 139°42'1 1.1
2018-Apr-22 09:01N 35°26' E 139°42'1 2.2
2018-Apr-22 08:30N 35°26' E 139°43'3 6.8
2018-Apr-22 08:00N 35°23' E 139°46'612.3
2018-Apr-22 07:30N 35°17' E 139°45'612.1
2018-Apr-22 07:00N 35°11' E 139°47'0 0.2
2018-Apr-22 06:30N 35°11' E 139°47'510.4
2018-Apr-22 06:00N 35°16' E 139°45'3 6.8
2018-Apr-22 05:31N 35°17' E 139°41'0 0.0
2018-Apr-22 05:00N 35°17' E 139°41'0 0.0
2018-Apr-22 04:30N 35°17' E 139°41'0 0.0
2018-Apr-22 04:00N 35°17' E 139°41'0 0.0
2018-Apr-22 03:30N 35°17' E 139°41'0 0.0
2018-Apr-22 03:01N 35°17' E 139°41'0 0.0
2018-Apr-22 02:30N 35°17' E 139°41'0 0.0
2018-Apr-22 02:01N 35°17' E 139°41'0 0.0
2018-Apr-22 01:30N 35°17' E 139°41'0 0.0
2018-Apr-22 01:00N 35°17' E 139°41'0 0.0
2018-Apr-22 00:30N 35°17' E 139°41'0 0.0
2018-Apr-22 00:00N 35°17' E 139°41'0 0.0
2018-Apr-21 23:30N 35°17' E 139°41'0 0.0
2018-Apr-21 23:00N 35°17' E 139°41'0 0.0
2018-Apr-21 22:30N 35°17' E 139°41'0 0.0
2018-Apr-21 22:00N 35°17' E 139°41'0 0.0
2018-Apr-21 21:30N 35°17' E 139°41'0 0.0
2018-Apr-21 21:00N 35°17' E 139°41'0 0.0
2018-Apr-21 20:30N 35°17' E 139°41'0 0.0
2018-Apr-21 20:00N 35°17' E 139°41'0 0.0
2018-Apr-21 19:30N 35°17' E 139°41'0 0.0
2018-Apr-21 19:00N 35°17' E 139°41'0 0.0
2018-Apr-21 18:30N 35°17' E 139°41'0 0.0
2018-Apr-21 18:00N 35°17' E 139°41'0 0.0
2018-Apr-21 17:30N 35°17' E 139°41'0 0.0
2018-Apr-21 16:59N 35°17' E 139°41'0 0.0
2018-Apr-21 16:30N 35°17' E 139°41'0 0.0
2018-Apr-21 16:00N 35°17' E 139°41'0 0.0
2018-Apr-21 15:30N 35°17' E 139°41'0 0.0
2018-Apr-21 15:00N 35°17' E 139°41'0 0.0
2018-Apr-21 14:30N 35°17' E 139°41'0 0.0
2018-Apr-21 14:00N 35°17' E 139°41'0 0.0
2018-Apr-21 13:30N 35°17' E 139°41'0 0.0
2018-Apr-21 13:00N 35°17' E 139°41'0 0.0
2018-Apr-21 12:30N 35°17' E 139°41'0 0.0
2018-Apr-21 12:00N 35°17' E 139°41'0 0.0
2018-Apr-21 11:30N 35°17' E 139°41'0 0.0
2018-Apr-21 11:00N 35°17' E 139°41'0 0.0
2018-Apr-21 10:30N 35°17' E 139°41'0 0.0
2018-Apr-21 10:00N 35°17' E 139°41'0 0.0
2018-Apr-21 09:30N 35°17' E 139°41'0 0.0
2018-Apr-21 09:00N 35°17' E 139°41'0 0.0
2018-Apr-21 08:30N 35°17' E 139°41'0 0.0
2018-Apr-21 08:00N 35°17' E 139°41'0 0.0
2018-Apr-21 07:30N 35°17' E 139°41'0 0.0
2018-Apr-21 07:00N 35°17' E 139°41'0 0.0
2018-Apr-21 06:30N 35°17' E 139°41'0 0.0
2018-Apr-21 06:00N 35°17' E 139°41'0 0.0
2018-Apr-21 05:30N 35°17' E 139°41'0 0.0
2018-Apr-21 05:00N 35°17' E 139°41'0 0.0
2018-Apr-21 04:30N 35°17' E 139°41'0 0.0
2018-Apr-21 04:00N 35°17' E 139°41'0 0.0
2018-Apr-21 03:30N 35°17' E 139°41'0 0.0
2018-Apr-21 03:00N 35°17' E 139°41'0 0.0
2018-Apr-21 02:29N 35°17' E 139°41'0 0.0
2018-Apr-21 02:00N 35°17' E 139°41'0 0.0
2018-Apr-21 01:30N 35°17' E 139°41'0 0.0
2018-Apr-21 01:00N 35°17' E 139°41'0 0.0
2018-Apr-21 00:30N 35°17' E 139°41'0 0.0
2018-Apr-21 00:00N 35°17' E 139°41'0 0.0
2018-Apr-20 23:30N 35°17' E 139°41'0 0.1
2018-Apr-20 23:00N 35°17' E 139°41'0 0.1
2018-Apr-20 22:30N 35°17' E 139°41'0 0.1
2018-Apr-20 21:59N 35°17' E 139°41'1 2.9
2018-Apr-20 21:30N 35°18' E 139°42'5 9.0
2018-Apr-20 21:00N 35°14' E 139°44'2 4.0
2018-Apr-20 20:30N 35°12' E 139°46'612.4
2018-Apr-20 20:00N 35°18' E 139°44'611.4
2018-Apr-20 19:31N 35°23' E 139°41'1 1.5
2018-Apr-20 19:00N 35°23' E 139°40'0 0.0
2018-Apr-20 18:30N 35°23' E 139°40'0 0.0
2018-Apr-20 18:01N 35°23' E 139°40'0 0.0
2018-Apr-20 17:30N 35°23' E 139°40'0 0.0
2018-Apr-20 17:00N 35°23' E 139°40'0 0.0
2018-Apr-20 16:31N 35°23' E 139°40'0 0.0
2018-Apr-20 16:00N 35°23' E 139°40'1 1.7
2018-Apr-20 15:30N 35°23' E 139°41'5 9.8
2018-Apr-20 15:00N 35°28' E 139°43'1 1.5
2018-Apr-20 14:30N 35°27' E 139°43'0 0.6
2018-Apr-20 14:00N 35°27' E 139°42'0 0.0
2018-Apr-20 13:30N 35°27' E 139°42'0 0.0
2018-Apr-20 13:00N 35°27' E 139°42'0 0.0
2018-Apr-20 12:30N 35°27' E 139°42'3 6.0
2018-Apr-20 12:00N 35°24' E 139°42'510.8
2018-Apr-20 11:30N 35°19' E 139°42'511.0
2018-Apr-20 11:00N 35°14' E 139°46'2 3.7
2018-Apr-20 10:30N 35°16' E 139°46'612.2
2018-Apr-20 10:00N 35°21' E 139°43'510.7
2018-Apr-20 09:30N 35°26' E 139°45'712.9
2018-Apr-20 08:59N 35°30' E 139°52'3 7.3
2018-Apr-20 08:30N 35°32' E 139°55'4 7.6
2018-Apr-20 08:00N 35°29' E 139°54'0 0.0
2018-Apr-20 07:30N 35°28' E 139°54'0 0.0
2018-Apr-20 06:57N 35°28' E 139°54'1 2.6
2018-Apr-20 06:30N 35°27' E 139°53'3 5.6
2018-Apr-20 06:01N 35°26' E 139°50'3 5.7
2018-Apr-20 05:30N 35°25' E 139°47'510.3
2018-Apr-20 05:01N 35°20' E 139°44'511.0
2018-Apr-20 04:30N 35°15' E 139°47'510.1
2018-Apr-20 04:00N 35°10' E 139°47'3 6.4
2018-Apr-20 03:30N 35°13' E 139°46'510.5
2018-Apr-20 03:00N 35°18' E 139°42'1 2.5
2018-Apr-20 02:30N 35°17' E 139°41'0 0.0
2018-Apr-20 02:00N 35°17' E 139°41'0 0.0
2018-Apr-20 01:30N 35°17' E 139°41'0 0.0
2018-Apr-20 01:00N 35°17' E 139°41'0 0.0
2018-Apr-20 00:30N 35°17' E 139°41'0 0.0
2018-Apr-20 00:00N 35°17' E 139°41'0 0.0
2018-Apr-19 23:30N 35°17' E 139°41'0 0.0
2018-Apr-19 23:00N 35°17' E 139°41'0 0.0
2018-Apr-19 22:30N 35°17' E 139°41'0 0.0
2018-Apr-19 22:00N 35°17' E 139°41'0 0.0
2018-Apr-19 21:30N 35°17' E 139°41'0 0.0
2018-Apr-19 21:00N 35°17' E 139°41'0 0.0
2018-Apr-19 20:30N 35°17' E 139°41'0 0.0
2018-Apr-19 20:00N 35°17' E 139°41'0 0.0
2018-Apr-19 19:30N 35°17' E 139°41'0 0.0
2018-Apr-19 19:00N 35°17' E 139°41'0 0.0
2018-Apr-19 18:30N 35°17' E 139°41'0 0.0
2018-Apr-19 18:00N 35°17' E 139°41'0 0.0
2018-Apr-19 17:30N 35°17' E 139°41'0 0.0
2018-Apr-19 17:00N 35°17' E 139°41'0 0.0
2018-Apr-19 16:30N 35°17' E 139°41'0 0.0
2018-Apr-19 16:00N 35°17' E 139°41'0 0.0
2018-Apr-19 15:30N 35°17' E 139°41'0 0.0
2018-Apr-19 15:00N 35°17' E 139°41'0 0.0
2018-Apr-19 14:30N 35°17' E 139°41'0 0.0
2018-Apr-19 14:00N 35°17' E 139°41'0 0.0
2018-Apr-19 13:30N 35°17' E 139°41'0 0.0
2018-Apr-19 13:00N 35°17' E 139°41'0 0.0
2018-Apr-19 12:30N 35°17' E 139°41'0 0.0
2018-Apr-19 12:00N 35°17' E 139°41'0 0.0
2018-Apr-19 11:30N 35°17' E 139°41'0 0.0
2018-Apr-19 11:00N 35°17' E 139°41'0 0.0
2018-Apr-19 10:30N 35°17' E 139°41'0 0.0
2018-Apr-19 10:00N 35°17' E 139°41'0 0.0
2018-Apr-19 09:30N 35°17' E 139°41'0 0.0
2018-Apr-19 09:00N 35°17' E 139°41'0 0.0
2018-Apr-19 08:30N 35°17' E 139°41'0 0.0
2018-Apr-19 08:00N 35°17' E 139°41'0 0.0
2018-Apr-19 07:30N 35°17' E 139°41'0 0.0
2018-Apr-19 07:00N 35°17' E 139°41'0 0.0
2018-Apr-19 06:29N 35°17' E 139°41'0 0.0
2018-Apr-19 06:00N 35°17' E 139°41'0 0.0
2018-Apr-19 05:30N 35°17' E 139°41'0 0.0
2018-Apr-19 05:00N 35°17' E 139°41'0 0.0
2018-Apr-19 04:30N 35°17' E 139°41'0 0.0
2018-Apr-19 04:00N 35°17' E 139°41'0 0.0
2018-Apr-19 03:30N 35°17' E 139°41'0 0.0
2018-Apr-19 03:00N 35°17' E 139°41'0 0.0
2018-Apr-19 02:30N 35°17' E 139°41'0 0.0
2018-Apr-19 02:00N 35°17' E 139°41'0 0.0
2018-Apr-19 01:30N 35°17' E 139°41'0 0.0
2018-Apr-19 01:00N 35°17' E 139°41'0 0.0
2018-Apr-19 00:30N 35°17' E 139°41'1 2.5
2018-Apr-19 00:00N 35°18' E 139°42'2 4.2
2018-Apr-18 23:30N 35°18' E 139°44'510.7
2018-Apr-18 23:00N 35°13' E 139°47'4 7.2
2018-Apr-18 22:30N 35°10' E 139°47'0 0.2
2018-Apr-18 22:00N 35°10' E 139°47'2 3.1
2018-Apr-18 21:30N 35°11' E 139°46'3 6.4
2018-Apr-18 21:00N 35°13' E 139°43'3 6.5
2018-Apr-18 20:30N 35°16' E 139°45'4 7.1
2018-Apr-18 20:00N 35°17' E 139°41'0 0.0
2018-Apr-18 19:30N 35°17' E 139°41'0 0.0
2018-Apr-18 19:00N 35°17' E 139°41'0 0.0
2018-Apr-18 18:30N 35°17' E 139°41'0 0.0
2018-Apr-18 18:00N 35°17' E 139°41'0 0.0
2018-Apr-18 17:30N 35°17' E 139°41'0 0.0
2018-Apr-18 17:00N 35°17' E 139°41'0 0.0
2018-Apr-18 16:30N 35°17' E 139°41'0 0.0
2018-Apr-18 16:00N 35°17' E 139°41'0 0.0
2018-Apr-18 15:30N 35°17' E 139°41'0 0.0
2018-Apr-18 15:00N 35°17' E 139°41'0 0.0
2018-Apr-18 14:30N 35°17' E 139°41'0 0.0
2018-Apr-18 14:00N 35°17' E 139°41'0 0.0
2018-Apr-18 13:30N 35°17' E 139°41'3 6.6
2018-Apr-18 13:00N 35°20' E 139°42'5 9.9
2018-Apr-18 12:30N 35°22' E 139°48'2 3.5
2018-Apr-18 12:00N 35°20' E 139°49'0 0.2
2018-Apr-18 11:30N 35°20' E 139°49'3 6.2
2018-Apr-18 11:00N 35°20' E 139°46'4 8.4
2018-Apr-18 10:30N 35°18' E 139°42'1 2.3
2018-Apr-18 10:00N 35°17' E 139°41'0 0.0
2018-Apr-18 09:30N 35°17' E 139°41'0 0.0
2018-Apr-18 09:00N 35°17' E 139°41'0 0.0
2018-Apr-18 08:30N 35°17' E 139°41'0 0.0
2018-Apr-18 08:01N 35°17' E 139°41'0 0.0
2018-Apr-18 07:30N 35°17' E 139°41'0 0.0
2018-Apr-18 07:00N 35°17' E 139°41'0 0.0
2018-Apr-18 06:30N 35°17' E 139°41'0 0.0
2018-Apr-18 06:00N 35°17' E 139°41'0 0.0
2018-Apr-18 05:30N 35°17' E 139°41'0 0.0
2018-Apr-18 05:00N 35°17' E 139°41'0 0.0
2018-Apr-18 04:31N 35°17' E 139°41'2 3.1
2018-Apr-18 04:00N 35°18' E 139°41'2 3.6
2018-Apr-18 03:30N 35°19' E 139°39'2 4.0
2018-Apr-18 03:00N 35°18' E 139°42'2 3.1
2018-Apr-18 02:30N 35°17' E 139°41'0 0.0
2018-Apr-18 02:00N 35°17' E 139°41'0 0.0
2018-Apr-18 01:30N 35°17' E 139°41'0 0.0
2018-Apr-18 01:00N 35°17' E 139°41'0 0.0
2018-Apr-18 00:31N 35°17' E 139°41'0 0.0
2018-Apr-18 00:00N 35°17' E 139°41'0 0.0
2018-Apr-17 23:30N 35°17' E 139°41'0 0.0
2018-Apr-17 23:00N 35°17' E 139°41'0 0.0
2018-Apr-17 22:30N 35°17' E 139°41'0 0.0
2018-Apr-17 22:00N 35°17' E 139°41'0 0.0
2018-Apr-17 21:30N 35°17' E 139°41'0 0.0
2018-Apr-17 20:59N 35°17' E 139°41'0 0.0
2018-Apr-17 20:30N 35°17' E 139°41'0 0.0
2018-Apr-17 20:00N 35°17' E 139°41'0 0.0
2018-Apr-17 19:30N 35°17' E 139°41'0 0.0
2018-Apr-17 19:00N 35°17' E 139°41'0 0.0
2018-Apr-17 18:30N 35°17' E 139°41'0 0.0
2018-Apr-17 18:00N 35°17' E 139°41'0 0.0
2018-Apr-17 17:30N 35°17' E 139°41'0 0.0
2018-Apr-17 17:00N 35°17' E 139°41'0 0.0
2018-Apr-17 16:30N 35°17' E 139°41'0 0.0
2018-Apr-17 16:00N 35°17' E 139°41'0 0.0
2018-Apr-17 15:30N 35°17' E 139°41'0 0.0
2018-Apr-17 15:00N 35°17' E 139°41'0 0.0
2018-Apr-17 14:30N 35°17' E 139°41'0 0.0
2018-Apr-17 14:01N 35°17' E 139°41'0 0.0
2018-Apr-17 13:30N 35°17' E 139°41'0 0.0
2018-Apr-17 13:00N 35°17' E 139°41'0 0.0
2018-Apr-17 12:30N 35°17' E 139°41'0 0.0
2018-Apr-17 12:00N 35°17' E 139°41'0 0.0
2018-Apr-17 11:30N 35°17' E 139°41'0 0.0
2018-Apr-17 11:00N 35°17' E 139°41'0 0.0
2018-Apr-17 10:30N 35°17' E 139°41'0 0.0
2018-Apr-17 10:00N 35°17' E 139°41'0 0.0
2018-Apr-17 09:30N 35°17' E 139°41'0 0.0
2018-Apr-17 09:00N 35°17' E 139°41'0 0.0
2018-Apr-17 08:28N 35°17' E 139°41'0 0.0
2018-Apr-17 08:00N 35°17' E 139°41'0 0.0
2018-Apr-17 07:30N 35°17' E 139°41'0 0.0
2018-Apr-17 07:00N 35°17' E 139°41'0 0.0
2018-Apr-17 06:30N 35°17' E 139°41'0 0.0
2018-Apr-17 06:00N 35°17' E 139°41'0 0.0
2018-Apr-17 05:30N 35°17' E 139°41'0 0.0
2018-Apr-17 05:00N 35°17' E 139°41'0 0.0
2018-Apr-17 04:30N 35°17' E 139°41'0 0.0
2018-Apr-17 04:01N 35°17' E 139°41'0 0.0
2018-Apr-17 03:30N 35°17' E 139°41'0 0.0
2018-Apr-17 03:00N 35°17' E 139°41'0 0.0
2018-Apr-17 02:31N 35°17' E 139°41'0 0.0
2018-Apr-17 02:00N 35°17' E 139°41'0 0.0
2018-Apr-17 01:30N 35°17' E 139°41'0 0.0
2018-Apr-17 01:00N 35°17' E 139°41'0 0.0
2018-Apr-17 00:30N 35°17' E 139°41'0 0.0
2018-Apr-16 23:59N 35°17' E 139°41'0 0.0
2018-Apr-16 23:30N 35°17' E 139°41'0 0.7
2018-Apr-16 23:00N 35°17' E 139°41'2 4.6
2018-Apr-16 22:30N 35°17' E 139°44'3 6.4
2018-Apr-16 22:00N 35°14' E 139°45'2 4.0
2018-Apr-16 21:30N 35°12' E 139°46'5 9.1
2018-Apr-16 21:00N 35°17' E 139°45'612.5
2018-Apr-16 20:30N 35°22' E 139°42'2 3.7
2018-Apr-16 20:00N 35°24' E 139°44'510.5
2018-Apr-16 19:31N 35°19' E 139°42'2 4.0
2018-Apr-16 19:01N 35°17' E 139°41'0 0.0
2018-Apr-16 18:30N 35°17' E 139°41'0 0.0
2018-Apr-16 18:01N 35°17' E 139°41'0 0.0
2018-Apr-16 17:31N 35°17' E 139°41'0 0.0
2018-Apr-16 17:00N 35°17' E 139°41'0 0.0
2018-Apr-16 16:31N 35°17' E 139°41'0 0.0
2018-Apr-16 16:00N 35°17' E 139°41'0 0.0
2018-Apr-16 15:30N 35°17' E 139°41'0 0.0
2018-Apr-16 15:00N 35°17' E 139°41'0 0.0
2018-Apr-16 14:30N 35°17' E 139°41'0 0.0
2018-Apr-16 14:00N 35°17' E 139°41'0 0.0
2018-Apr-16 13:30N 35°17' E 139°41'0 0.0
2018-Apr-16 13:00N 35°17' E 139°41'0 0.0
2018-Apr-16 12:30N 35°17' E 139°41'2 4.8
2018-Apr-16 11:59N 35°19' E 139°42'3 6.6
2018-Apr-16 11:31N 35°17' E 139°45'611.0
2018-Apr-16 11:00N 35°12' E 139°47'1 2.0
2018-Apr-16 10:30N 35°12' E 139°46'511.1
2018-Apr-16 10:01N 35°17' E 139°44'3 5.7
2018-Apr-16 09:30N 35°17' E 139°41'0 0.0
2018-Apr-16 09:00N 35°17' E 139°41'0 0.0
2018-Apr-16 08:30N 35°17' E 139°41'0 0.0
2018-Apr-16 08:00N 35°17' E 139°41'0 0.0
2018-Apr-16 07:30N 35°17' E 139°41'0 0.0
2018-Apr-16 07:00N 35°17' E 139°41'0 0.0
2018-Apr-16 06:30N 35°17' E 139°41'0 0.0
2018-Apr-16 06:00N 35°17' E 139°41'2 3.5
2018-Apr-16 05:30N 35°19' E 139°40'1 1.6
2018-Apr-16 05:01N 35°19' E 139°39'1 2.0
2018-Apr-16 04:30N 35°19' E 139°40'0 0.2
2018-Apr-16 04:00N 35°19' E 139°40'3 6.3
2018-Apr-16 03:31N 35°22' E 139°43'3 6.0
2018-Apr-16 03:00N 35°23' E 139°46'5 9.0
2018-Apr-16 02:30N 35°18' E 139°44'611.6
2018-Apr-16 02:01N 35°13' E 139°47'3 6.5
2018-Apr-16 01:30N 35°10' E 139°47'3 6.4
2018-Apr-16 01:00N 35°12' E 139°45'2 3.2
2018-Apr-16 00:30N 35°13' E 139°43'0 0.0
2018-Apr-16 00:00N 35°13' E 139°43'0 0.0
2018-Apr-15 23:30N 35°13' E 139°43'0 0.0
2018-Apr-15 23:00N 35°13' E 139°43'3 5.6
2018-Apr-15 22:30N 35°12' E 139°46'611.0
2018-Apr-15 22:00N 35°18' E 139°44'713.1
2018-Apr-15 21:30N 35°24' E 139°42'2 4.9
2018-Apr-15 21:00N 35°26' E 139°42'5 9.8
2018-Apr-15 20:30N 35°21' E 139°41'4 8.6
2018-Apr-15 20:01N 35°17' E 139°41'0 0.1
2018-Apr-15 19:30N 35°17' E 139°41'0 0.0
2018-Apr-15 19:00N 35°17' E 139°41'0 0.0
2018-Apr-15 18:30N 35°17' E 139°41'0 0.0
2018-Apr-15 18:00N 35°17' E 139°41'0 0.0
2018-Apr-15 17:30N 35°17' E 139°41'0 0.0
2018-Apr-15 17:00N 35°17' E 139°41'0 0.0
2018-Apr-15 16:30N 35°17' E 139°41'0 0.0
2018-Apr-15 16:00N 35°17' E 139°41'0 0.0
2018-Apr-15 15:30N 35°17' E 139°41'0 0.0
2018-Apr-15 15:00N 35°17' E 139°41'0 0.0
2018-Apr-15 14:31N 35°17' E 139°41'0 0.0
2018-Apr-15 14:00N 35°17' E 139°41'0 0.0
2018-Apr-15 13:30N 35°17' E 139°41'0 0.0
2018-Apr-15 13:00N 35°17' E 139°41'0 0.0
2018-Apr-15 12:31N 35°17' E 139°41'0 0.0
2018-Apr-15 12:01N 35°17' E 139°41'4 7.8
2018-Apr-15 11:30N 35°21' E 139°42'510.1
2018-Apr-15 11:00N 35°24' E 139°46'5 9.1
2018-Apr-15 10:30N 35°20' E 139°44'611.5
2018-Apr-15 10:00N 35°15' E 139°47'5 9.6
2018-Apr-15 09:30N 35°10' E 139°47'4 7.3
2018-Apr-15 09:00N 35°13' E 139°44'1 1.9
2018-Apr-15 08:30N 35°14' E 139°45'4 9.0
2018-Apr-15 08:01N 35°18' E 139°42'1 2.2
2018-Apr-15 07:30N 35°17' E 139°41'0 0.0
2018-Apr-15 07:00N 35°17' E 139°41'0 0.0
2018-Apr-15 06:30N 35°17' E 139°41'  
Track history (hours):
 
Tides and Currents Weather Stations Pressure Air Temp Water Temp Dewpoint Dewpoint Depression Visibility Wind Speed Wind Dir Waves Ship Positions

Aobamaru

Last reported at 2018-Apr-25 06:30 UTC. Time now 2018-Apr-25 06:37 UTC.
Position N 35°17' E 139°41'.

Length 38 m; draft 3 m.

Type: Tug. MMSI: 431003385.

Date/timePositionNaut miles runAvg speedWind from/ knotsBaromVisibWave heightAir tempDewpointWater temp
2018-Apr-25 06:30N 35°17' E 139°41'0 0.0
2018-Apr-25 06:00N 35°17' E 139°41'0 0.0
2018-Apr-25 05:30N 35°17' E 139°41'0 0.0
2018-Apr-25 05:00N 35°17' E 139°41'0 0.0
2018-Apr-25 04:30N 35°17' E 139°41'0 0.0
2018-Apr-25 04:00N 35°17' E 139°41'0 0.0
2018-Apr-25 03:30N 35°17' E 139°41'0 0.0
2018-Apr-25 03:00N 35°17' E 139°41'3 5.1
2018-Apr-25 02:30N 35°19' E 139°42'5 9.5
2018-Apr-25 02:00N 35°24' E 139°42'4 8.8
2018-Apr-25 01:31N 35°27' E 139°46'2 4.5
2018-Apr-25 01:00N 35°28' E 139°49'4 8.4
2018-Apr-25 00:30N 35°31' E 139°53'713.1
2018-Apr-25 00:00N 35°34' E 140°00'3 6.3
2018-Apr-24 23:30N 35°35' E 140°04'0 0.0
2018-Apr-24 23:01N 35°35' E 140°04'4 7.3
2018-Apr-24 22:30N 35°32' E 140°00'510.7
2018-Apr-24 22:00N 35°29' E 139°55'611.2
2018-Apr-24 21:30N 35°25' E 139°50'510.9
2018-Apr-24 21:00N 35°21' E 139°46'5 9.1
2018-Apr-24 20:31N 35°18' E 139°42'1 2.8
2018-Apr-24 20:01N 35°17' E 139°41'0 0.0
2018-Apr-24 19:30N 35°17' E 139°41'0 0.0
2018-Apr-24 19:01N 35°17' E 139°41'0 0.0
2018-Apr-24 18:30N 35°17' E 139°41'0 0.0
2018-Apr-24 18:00N 35°17' E 139°41'0 0.0
2018-Apr-24 17:31N 35°17' E 139°41'0 0.0
2018-Apr-24 17:00N 35°17' E 139°41'0 0.0
2018-Apr-24 16:31N 35°17' E 139°41'0 0.0
2018-Apr-24 16:00N 35°17' E 139°41'0 0.0
2018-Apr-24 15:30N 35°17' E 139°41'0 0.0
2018-Apr-24 15:00N 35°17' E 139°41'0 0.0
2018-Apr-24 14:31N 35°17' E 139°41'0 0.0
2018-Apr-24 14:00N 35°17' E 139°41'0 0.0
2018-Apr-24 13:30N 35°17' E 139°41'0 0.0
2018-Apr-24 13:01N 35°17' E 139°41'0 0.0
2018-Apr-24 12:30N 35°17' E 139°41'0 0.0
2018-Apr-24 12:00N 35°17' E 139°41'0 0.0
2018-Apr-24 11:31N 35°17' E 139°41'0 0.0
2018-Apr-24 11:01N 35°17' E 139°41'0 0.0
2018-Apr-24 10:30N 35°17' E 139°41'0 0.0
2018-Apr-24 10:01N 35°17' E 139°41'0 0.0
2018-Apr-24 09:31N 35°17' E 139°41'0 0.0
2018-Apr-24 09:01N 35°17' E 139°41'0 0.0
2018-Apr-24 08:31N 35°17' E 139°41'0 0.0
2018-Apr-24 08:00N 35°17' E 139°41'0 0.0
2018-Apr-24 07:30N 35°17' E 139°41'0 0.0
2018-Apr-24 07:01N 35°17' E 139°41'0 0.0
2018-Apr-24 06:30N 35°17' E 139°41'0 0.0
2018-Apr-24 06:00N 35°17' E 139°41'0 0.0
2018-Apr-24 05:31N 35°17' E 139°41'0 0.0
2018-Apr-24 05:00N 35°17' E 139°41'0 0.0
2018-Apr-24 04:30N 35°17' E 139°41'0 0.0
2018-Apr-24 04:00N 35°17' E 139°41'0 0.0
2018-Apr-24 03:30N 35°17' E 139°41'0 0.0
2018-Apr-24 03:00N 35°17' E 139°41'0 0.0
2018-Apr-24 02:31N 35°17' E 139°41'1 1.2
2018-Apr-24 02:00N 35°17' E 139°41'510.6
2018-Apr-24 01:30N 35°23' E 139°41'4 7.3
2018-Apr-24 01:00N 35°19' E 139°43'612.4
2018-Apr-24 00:30N 35°14' E 139°47'4 8.1
2018-Apr-24 00:00N 35°10' E 139°47'4 7.3
2018-Apr-23 23:30N 35°13' E 139°44'1 1.4
2018-Apr-23 23:00N 35°13' E 139°44'4 7.7
2018-Apr-23 22:31N 35°17' E 139°44'3 5.2
2018-Apr-23 22:00N 35°17' E 139°41'0 0.0
2018-Apr-23 21:30N 35°17' E 139°41'0 0.0
2018-Apr-23 21:01N 35°17' E 139°41'0 0.0
2018-Apr-23 20:30N 35°17' E 139°41'0 0.0
2018-Apr-23 20:01N 35°17' E 139°41'0 0.0
2018-Apr-23 19:30N 35°17' E 139°41'0 0.0
2018-Apr-23 19:01N 35°17' E 139°41'0 0.0
2018-Apr-23 18:31N 35°17' E 139°41'0 0.0
2018-Apr-23 18:00N 35°17' E 139°41'0 0.0
2018-Apr-23 17:31N 35°17' E 139°41'0 0.0
2018-Apr-23 17:00N 35°17' E 139°41'0 0.0
2018-Apr-23 16:31N 35°17' E 139°41'0 0.0
2018-Apr-23 16:01N 35°17' E 139°41'0 0.0
2018-Apr-23 15:30N 35°17' E 139°41'0 0.0
2018-Apr-23 15:01N 35°17' E 139°41'0 0.0
2018-Apr-23 14:30N 35°17' E 139°41'0 0.0
2018-Apr-23 14:00N 35°17' E 139°41'0 0.0
2018-Apr-23 13:30N 35°17' E 139°41'0 0.0
2018-Apr-23 13:00N 35°17' E 139°41'0 0.0
2018-Apr-23 12:30N 35°17' E 139°41'0 0.0
2018-Apr-23 12:00N 35°17' E 139°41'0 0.0
2018-Apr-23 11:30N 35°17' E 139°41'0 0.0
2018-Apr-23 11:00N 35°17' E 139°41'0 0.0
2018-Apr-23 10:30N 35°17' E 139°41'0 0.0
2018-Apr-23 10:01N 35°17' E 139°41'0 0.0
2018-Apr-23 09:30N 35°17' E 139°41'0 0.0
2018-Apr-23 09:00N 35°17' E 139°41'0 0.0
2018-Apr-23 08:30N 35°17' E 139°41'0 0.0
2018-Apr-23 08:00N 35°17' E 139°41'0 0.0
2018-Apr-23 07:30N 35°17' E 139°41'0 0.0
2018-Apr-23 07:00N 35°17' E 139°41'0 0.0
2018-Apr-23 06:30N 35°17' E 139°41'0 0.0
2018-Apr-23 06:00N 35°17' E 139°41'0 0.0
2018-Apr-23 05:31N 35°17' E 139°41'0 0.0
2018-Apr-23 05:00N 35°17' E 139°41'0 0.0
2018-Apr-23 04:31N 35°17' E 139°41'0 0.0
2018-Apr-23 04:00N 35°17' E 139°41'0 0.0
2018-Apr-23 03:30N 35°17' E 139°41'0 0.0
2018-Apr-23 03:01N 35°17' E 139°41'0 0.0
2018-Apr-23 02:31N 35°17' E 139°41'0 0.0
2018-Apr-23 02:00N 35°17' E 139°41'0 0.0
2018-Apr-23 01:31N 35°17' E 139°41'0 0.0
2018-Apr-23 01:00N 35°17' E 139°41'0 0.0
2018-Apr-23 00:30N 35°17' E 139°41'0 0.0
2018-Apr-23 00:01N 35°17' E 139°41'0 0.5
2018-Apr-22 23:31N 35°17' E 139°41'1 2.4
2018-Apr-22 23:00N 35°17' E 139°39'0 0.4
2018-Apr-22 22:30N 35°17' E 139°39'1 2.1
2018-Apr-22 22:01N 35°17' E 139°41'0 0.0
2018-Apr-22 21:31N 35°17' E 139°41'0 0.0
2018-Apr-22 21:00N 35°17' E 139°41'0 0.0
2018-Apr-22 20:30N 35°17' E 139°41'0 0.0
2018-Apr-22 20:00N 35°17' E 139°41'0 0.0
2018-Apr-22 19:30N 35°17' E 139°41'1 1.5
2018-Apr-22 19:01N 35°17' E 139°41'4 8.9
2018-Apr-22 18:31N 35°14' E 139°45'2 4.0
2018-Apr-22 18:00N 35°12' E 139°46'5 9.7
2018-Apr-22 17:30N 35°17' E 139°45'611.5
2018-Apr-22 17:00N 35°22' E 139°42'2 3.1
2018-Apr-22 16:31N 35°23' E 139°40'0 0.1
2018-Apr-22 16:01N 35°23' E 139°40'0 0.0
2018-Apr-22 15:30N 35°23' E 139°40'0 0.0
2018-Apr-22 15:00N 35°23' E 139°40'0 0.0
2018-Apr-22 14:31N 35°23' E 139°40'0 0.0
2018-Apr-22 14:01N 35°23' E 139°40'0 0.0
2018-Apr-22 13:31N 35°23' E 139°40'0 0.0
2018-Apr-22 13:00N 35°23' E 139°40'0 0.0
2018-Apr-22 12:30N 35°23' E 139°40'0 0.0
2018-Apr-22 12:01N 35°23' E 139°40'1 1.7
2018-Apr-22 11:30N 35°22' E 139°41'612.8
2018-Apr-22 11:00N 35°17' E 139°44'3 5.8
2018-Apr-22 10:31N 35°14' E 139°46'611.7
2018-Apr-22 10:00N 35°19' E 139°43'612.9
2018-Apr-22 09:31N 35°26' E 139°42'1 1.1
2018-Apr-22 09:01N 35°26' E 139°42'1 2.2
2018-Apr-22 08:30N 35°26' E 139°43'3 6.8
2018-Apr-22 08:00N 35°23' E 139°46'612.3
2018-Apr-22 07:30N 35°17' E 139°45'612.1
2018-Apr-22 07:00N 35°11' E 139°47'0 0.2
2018-Apr-22 06:30N 35°11' E 139°47'510.4
2018-Apr-22 06:00N 35°16' E 139°45'3 6.8
2018-Apr-22 05:31N 35°17' E 139°41'0 0.0
2018-Apr-22 05:00N 35°17' E 139°41'0 0.0
2018-Apr-22 04:30N 35°17' E 139°41'0 0.0
2018-Apr-22 04:00N 35°17' E 139°41'0 0.0
2018-Apr-22 03:30N 35°17' E 139°41'0 0.0
2018-Apr-22 03:01N 35°17' E 139°41'0 0.0
2018-Apr-22 02:30N 35°17' E 139°41'0 0.0
2018-Apr-22 02:01N 35°17' E 139°41'0 0.0
2018-Apr-22 01:30N 35°17' E 139°41'0 0.0
2018-Apr-22 01:00N 35°17' E 139°41'0 0.0
2018-Apr-22 00:30N 35°17' E 139°41'0 0.0
2018-Apr-22 00:00N 35°17' E 139°41'0 0.0
2018-Apr-21 23:30N 35°17' E 139°41'0 0.0
2018-Apr-21 23:00N 35°17' E 139°41'0 0.0
2018-Apr-21 22:30N 35°17' E 139°41'0 0.0
2018-Apr-21 22:00N 35°17' E 139°41'0 0.0
2018-Apr-21 21:30N 35°17' E 139°41'0 0.0
2018-Apr-21 21:00N 35°17' E 139°41'0 0.0
2018-Apr-21 20:30N 35°17' E 139°41'0 0.0
2018-Apr-21 20:00N 35°17' E 139°41'0 0.0
2018-Apr-21 19:30N 35°17' E 139°41'0 0.0
2018-Apr-21 19:00N 35°17' E 139°41'0 0.0
2018-Apr-21 18:30N 35°17' E 139°41'0 0.0
2018-Apr-21 18:00N 35°17' E 139°41'0 0.0
2018-Apr-21 17:30N 35°17' E 139°41'0 0.0
2018-Apr-21 16:59N 35°17' E 139°41'0 0.0
2018-Apr-21 16:30N 35°17' E 139°41'0 0.0
2018-Apr-21 16:00N 35°17' E 139°41'0 0.0
2018-Apr-21 15:30N 35°17' E 139°41'0 0.0
2018-Apr-21 15:00N 35°17' E 139°41'0 0.0
2018-Apr-21 14:30N 35°17' E 139°41'0 0.0
2018-Apr-21 14:00N 35°17' E 139°41'0 0.0
2018-Apr-21 13:30N 35°17' E 139°41'0 0.0
2018-Apr-21 13:00N 35°17' E 139°41'0 0.0
2018-Apr-21 12:30N 35°17' E 139°41'0 0.0
2018-Apr-21 12:00N 35°17' E 139°41'0 0.0
2018-Apr-21 11:30N 35°17' E 139°41'0 0.0
2018-Apr-21 11:00N 35°17' E 139°41'0 0.0
2018-Apr-21 10:30N 35°17' E 139°41'0 0.0
2018-Apr-21 10:00N 35°17' E 139°41'0 0.0
2018-Apr-21 09:30N 35°17' E 139°41'0 0.0
2018-Apr-21 09:00N 35°17' E 139°41'0 0.0
2018-Apr-21 08:30N 35°17' E 139°41'0 0.0
2018-Apr-21 08:00N 35°17' E 139°41'0 0.0
2018-Apr-21 07:30N 35°17' E 139°41'0 0.0
2018-Apr-21 07:00N 35°17' E 139°41'0 0.0
2018-Apr-21 06:30N 35°17' E 139°41'0 0.0
2018-Apr-21 06:00N 35°17' E 139°41'0 0.0
2018-Apr-21 05:30N 35°17' E 139°41'0 0.0
2018-Apr-21 05:00N 35°17' E 139°41'0 0.0
2018-Apr-21 04:30N 35°17' E 139°41'0 0.0
2018-Apr-21 04:00N 35°17' E 139°41'0 0.0
2018-Apr-21 03:30N 35°17' E 139°41'0 0.0
2018-Apr-21 03:00N 35°17' E 139°41'0 0.0
2018-Apr-21 02:29N 35°17' E 139°41'0 0.0
2018-Apr-21 02:00N 35°17' E 139°41'0 0.0
2018-Apr-21 01:30N 35°17' E 139°41'0 0.0
2018-Apr-21 01:00N 35°17' E 139°41'0 0.0
2018-Apr-21 00:30N 35°17' E 139°41'0 0.0
2018-Apr-21 00:00N 35°17' E 139°41'0 0.0
2018-Apr-20 23:30N 35°17' E 139°41'0 0.1
2018-Apr-20 23:00N 35°17' E 139°41'0 0.1
2018-Apr-20 22:30N 35°17' E 139°41'0 0.1
2018-Apr-20 21:59N 35°17' E 139°41'1 2.9
2018-Apr-20 21:30N 35°18' E 139°42'5 9.0
2018-Apr-20 21:00N 35°14' E 139°44'2 4.0
2018-Apr-20 20:30N 35°12' E 139°46'612.4
2018-Apr-20 20:00N 35°18' E 139°44'611.4
2018-Apr-20 19:31N 35°23' E 139°41'1 1.5
2018-Apr-20 19:00N 35°23' E 139°40'0 0.0
2018-Apr-20 18:30N 35°23' E 139°40'0 0.0
2018-Apr-20 18:01N 35°23' E 139°40'0 0.0
2018-Apr-20 17:30N 35°23' E 139°40'0 0.0
2018-Apr-20 17:00N 35°23' E 139°40'0 0.0
2018-Apr-20 16:31N 35°23' E 139°40'0 0.0
2018-Apr-20 16:00N 35°23' E 139°40'1 1.7
2018-Apr-20 15:30N 35°23' E 139°41'5 9.8
2018-Apr-20 15:00N 35°28' E 139°43'1 1.5
2018-Apr-20 14:30N 35°27' E 139°43'0 0.6
2018-Apr-20 14:00N 35°27' E 139°42'0 0.0
2018-Apr-20 13:30N 35°27' E 139°42'0 0.0
2018-Apr-20 13:00N 35°27' E 139°42'0 0.0
2018-Apr-20 12:30N 35°27' E 139°42'3 6.0
2018-Apr-20 12:00N 35°24' E 139°42'510.8
2018-Apr-20 11:30N 35°19' E 139°42'511.0
2018-Apr-20 11:00N 35°14' E 139°46'2 3.7
2018-Apr-20 10:30N 35°16' E 139°46'612.2
2018-Apr-20 10:00N 35°21' E 139°43'510.7
2018-Apr-20 09:30N 35°26' E 139°45'712.9
2018-Apr-20 08:59N 35°30' E 139°52'3 7.3
2018-Apr-20 08:30N 35°32' E 139°55'4 7.6
2018-Apr-20 08:00N 35°29' E 139°54'0 0.0
2018-Apr-20 07:30N 35°28' E 139°54'0 0.0
2018-Apr-20 06:57N 35°28' E 139°54'1 2.6
2018-Apr-20 06:30N 35°27' E 139°53'3 5.6
2018-Apr-20 06:01N 35°26' E 139°50'3 5.7
2018-Apr-20 05:30N 35°25' E 139°47'510.3
2018-Apr-20 05:01N 35°20' E 139°44'511.0
2018-Apr-20 04:30N 35°15' E 139°47'510.1
2018-Apr-20 04:00N 35°10' E 139°47'3 6.4
2018-Apr-20 03:30N 35°13' E 139°46'510.5
2018-Apr-20 03:00N 35°18' E 139°42'1 2.5
2018-Apr-20 02:30N 35°17' E 139°41'0 0.0
2018-Apr-20 02:00N 35°17' E 139°41'0 0.0
2018-Apr-20 01:30N 35°17' E 139°41'0 0.0
2018-Apr-20 01:00N 35°17' E 139°41'0 0.0
2018-Apr-20 00:30N 35°17' E 139°41'0 0.0
2018-Apr-20 00:00N 35°17' E 139°41'0 0.0
2018-Apr-19 23:30N 35°17' E 139°41'0 0.0
2018-Apr-19 23:00N 35°17' E 139°41'0 0.0
2018-Apr-19 22:30N 35°17' E 139°41'0 0.0
2018-Apr-19 22:00N 35°17' E 139°41'0 0.0
2018-Apr-19 21:30N 35°17' E 139°41'0 0.0
2018-Apr-19 21:00N 35°17' E 139°41'0 0.0
2018-Apr-19 20:30N 35°17' E 139°41'0 0.0
2018-Apr-19 20:00N 35°17' E 139°41'0 0.0
2018-Apr-19 19:30N 35°17' E 139°41'0 0.0
2018-Apr-19 19:00N 35°17' E 139°41'0 0.0
2018-Apr-19 18:30N 35°17' E 139°41'0 0.0
2018-Apr-19 18:00N 35°17' E 139°41'0 0.0
2018-Apr-19 17:30N 35°17' E 139°41'0 0.0
2018-Apr-19 17:00N 35°17' E 139°41'0 0.0
2018-Apr-19 16:30N 35°17' E 139°41'0 0.0
2018-Apr-19 16:00N 35°17' E 139°41'0 0.0
2018-Apr-19 15:30N 35°17' E 139°41'0 0.0
2018-Apr-19 15:00N 35°17' E 139°41'0 0.0
2018-Apr-19 14:30N 35°17' E 139°41'0 0.0
2018-Apr-19 14:00N 35°17' E 139°41'0 0.0
2018-Apr-19 13:30N 35°17' E 139°41'0 0.0
2018-Apr-19 13:00N 35°17' E 139°41'0 0.0
2018-Apr-19 12:30N 35°17' E 139°41'0 0.0
2018-Apr-19 12:00N 35°17' E 139°41'0 0.0
2018-Apr-19 11:30N 35°17' E 139°41'0 0.0
2018-Apr-19 11:00N 35°17' E 139°41'0 0.0
2018-Apr-19 10:30N 35°17' E 139°41'0 0.0
2018-Apr-19 10:00N 35°17' E 139°41'0 0.0
2018-Apr-19 09:30N 35°17' E 139°41'0 0.0
2018-Apr-19 09:00N 35°17' E 139°41'0 0.0
2018-Apr-19 08:30N 35°17' E 139°41'0 0.0
2018-Apr-19 08:00N 35°17' E 139°41'0 0.0
2018-Apr-19 07:30N 35°17' E 139°41'0 0.0
2018-Apr-19 07:00N 35°17' E 139°41'0 0.0
2018-Apr-19 06:29N 35°17' E 139°41'0 0.0
2018-Apr-19 06:00N 35°17' E 139°41'0 0.0
2018-Apr-19 05:30N 35°17' E 139°41'0 0.0
2018-Apr-19 05:00N 35°17' E 139°41'0 0.0
2018-Apr-19 04:30N 35°17' E 139°41'0 0.0
2018-Apr-19 04:00N 35°17' E 139°41'0 0.0
2018-Apr-19 03:30N 35°17' E 139°41'0 0.0
2018-Apr-19 03:00N 35°17' E 139°41'0 0.0
2018-Apr-19 02:30N 35°17' E 139°41'0 0.0
2018-Apr-19 02:00N 35°17' E 139°41'0 0.0
2018-Apr-19 01:30N 35°17' E 139°41'0 0.0
2018-Apr-19 01:00N 35°17' E 139°41'0 0.0
2018-Apr-19 00:30N 35°17' E 139°41'1 2.5
2018-Apr-19 00:00N 35°18' E 139°42'2 4.2
2018-Apr-18 23:30N 35°18' E 139°44'510.7
2018-Apr-18 23:00N 35°13' E 139°47'4 7.2
2018-Apr-18 22:30N 35°10' E 139°47'0 0.2
2018-Apr-18 22:00N 35°10' E 139°47'2 3.1
2018-Apr-18 21:30N 35°11' E 139°46'3 6.4
2018-Apr-18 21:00N 35°13' E 139°43'3 6.5
2018-Apr-18 20:30N 35°16' E 139°45'4 7.1
2018-Apr-18 20:00N 35°17' E 139°41'0 0.0
2018-Apr-18 19:30N 35°17' E 139°41'0 0.0
2018-Apr-18 19:00N 35°17' E 139°41'0 0.0
2018-Apr-18 18:30N 35°17' E 139°41'0 0.0
2018-Apr-18 18:00N 35°17' E 139°41'0 0.0
2018-Apr-18 17:30N 35°17' E 139°41'0 0.0
2018-Apr-18 17:00N 35°17' E 139°41'0 0.0
2018-Apr-18 16:30N 35°17' E 139°41'0 0.0
2018-Apr-18 16:00N 35°17' E 139°41'0 0.0
2018-Apr-18 15:30N 35°17' E 139°41'0 0.0
2018-Apr-18 15:00N 35°17' E 139°41'0 0.0
2018-Apr-18 14:30N 35°17' E 139°41'0 0.0
2018-Apr-18 14:00N 35°17' E 139°41'0 0.0
2018-Apr-18 13:30N 35°17' E 139°41'3 6.6
2018-Apr-18 13:00N 35°20' E 139°42'5 9.9
2018-Apr-18 12:30N 35°22' E 139°48'2 3.5
2018-Apr-18 12:00N 35°20' E 139°49'0 0.2
2018-Apr-18 11:30N 35°20' E 139°49'3 6.2
2018-Apr-18 11:00N 35°20' E 139°46'4 8.4
2018-Apr-18 10:30N 35°18' E 139°42'1 2.3
2018-Apr-18 10:00N 35°17' E 139°41'0 0.0
2018-Apr-18 09:30N 35°17' E 139°41'0 0.0
2018-Apr-18 09:00N 35°17' E 139°41'0 0.0
2018-Apr-18 08:30N 35°17' E 139°41'0 0.0
2018-Apr-18 08:01N 35°17' E 139°41'0 0.0
2018-Apr-18 07:30N 35°17' E 139°41'0 0.0
2018-Apr-18 07:00N 35°17' E 139°41'0 0.0
2018-Apr-18 06:30N 35°17' E 139°41'0 0.0
2018-Apr-18 06:00N 35°17' E 139°41'0 0.0
2018-Apr-18 05:30N 35°17' E 139°41'0 0.0
2018-Apr-18 05:00N 35°17' E 139°41'0 0.0
2018-Apr-18 04:31N 35°17' E 139°41'2 3.1
2018-Apr-18 04:00N 35°18' E 139°41'2 3.6
2018-Apr-18 03:30N 35°19' E 139°39'2 4.0
2018-Apr-18 03:00N 35°18' E 139°42'2 3.1
2018-Apr-18 02:30N 35°17' E 139°41'0 0.0
2018-Apr-18 02:00N 35°17' E 139°41'0 0.0
2018-Apr-18 01:30N 35°17' E 139°41'0 0.0
2018-Apr-18 01:00N 35°17' E 139°41'0 0.0
2018-Apr-18 00:31N 35°17' E 139°41'0 0.0
2018-Apr-18 00:00N 35°17' E 139°41'0 0.0
2018-Apr-17 23:30N 35°17' E 139°41'0 0.0
2018-Apr-17 23:00N 35°17' E 139°41'0 0.0
2018-Apr-17 22:30N 35°17' E 139°41'0 0.0
2018-Apr-17 22:00N 35°17' E 139°41'0 0.0
2018-Apr-17 21:30N 35°17' E 139°41'0 0.0
2018-Apr-17 20:59N 35°17' E 139°41'0 0.0
2018-Apr-17 20:30N 35°17' E 139°41'0 0.0
2018-Apr-17 20:00N 35°17' E 139°41'0 0.0
2018-Apr-17 19:30N 35°17' E 139°41'0 0.0
2018-Apr-17 19:00N 35°17' E 139°41'0 0.0
2018-Apr-17 18:30N 35°17' E 139°41'0 0.0
2018-Apr-17 18:00N 35°17' E 139°41'0 0.0
2018-Apr-17 17:30N 35°17' E 139°41'0 0.0
2018-Apr-17 17:00N 35°17' E 139°41'0 0.0
2018-Apr-17 16:30N 35°17' E 139°41'0 0.0
2018-Apr-17 16:00N 35°17' E 139°41'0 0.0
2018-Apr-17 15:30N 35°17' E 139°41'0 0.0
2018-Apr-17 15:00N 35°17' E 139°41'0 0.0
2018-Apr-17 14:30N 35°17' E 139°41'0 0.0
2018-Apr-17 14:01N 35°17' E 139°41'0 0.0
2018-Apr-17 13:30N 35°17' E 139°41'0 0.0
2018-Apr-17 13:00N 35°17' E 139°41'0 0.0
2018-Apr-17 12:30N 35°17' E 139°41'0 0.0
2018-Apr-17 12:00N 35°17' E 139°41'0 0.0
2018-Apr-17 11:30N 35°17' E 139°41'0 0.0
2018-Apr-17 11:00N 35°17' E 139°41'0 0.0
2018-Apr-17 10:30N 35°17' E 139°41'0 0.0
2018-Apr-17 10:00N 35°17' E 139°41'0 0.0
2018-Apr-17 09:30N 35°17' E 139°41'0 0.0
2018-Apr-17 09:00N 35°17' E 139°41'0 0.0
2018-Apr-17 08:28N 35°17' E 139°41'0 0.0
2018-Apr-17 08:00N 35°17' E 139°41'0 0.0
2018-Apr-17 07:30N 35°17' E 139°41'0 0.0
2018-Apr-17 07:00N 35°17' E 139°41'0 0.0
2018-Apr-17 06:30N 35°17' E 139°41'0 0.0
2018-Apr-17 06:00N 35°17' E 139°41'0 0.0
2018-Apr-17 05:30N 35°17' E 139°41'0 0.0
2018-Apr-17 05:00N 35°17' E 139°41'0 0.0
2018-Apr-17 04:30N 35°17' E 139°41'0 0.0
2018-Apr-17 04:01N 35°17' E 139°41'0 0.0
2018-Apr-17 03:30N 35°17' E 139°41'0 0.0
2018-Apr-17 03:00N 35°17' E 139°41'0 0.0
2018-Apr-17 02:31N 35°17' E 139°41'0 0.0
2018-Apr-17 02:00N 35°17' E 139°41'0 0.0
2018-Apr-17 01:30N 35°17' E 139°41'0 0.0
2018-Apr-17 01:00N 35°17' E 139°41'0 0.0
2018-Apr-17 00:30N 35°17' E 139°41'0 0.0
2018-Apr-16 23:59N 35°17' E 139°41'0 0.0
2018-Apr-16 23:30N 35°17' E 139°41'0 0.7
2018-Apr-16 23:00N 35°17' E 139°41'2 4.6
2018-Apr-16 22:30N 35°17' E 139°44'3 6.4
2018-Apr-16 22:00N 35°14' E 139°45'2 4.0
2018-Apr-16 21:30N 35°12' E 139°46'5 9.1
2018-Apr-16 21:00N 35°17' E 139°45'612.5
2018-Apr-16 20:30N 35°22' E 139°42'2 3.7
2018-Apr-16 20:00N 35°24' E 139°44'510.5
2018-Apr-16 19:31N 35°19' E 139°42'2 4.0
2018-Apr-16 19:01N 35°17' E 139°41'0 0.0
2018-Apr-16 18:30N 35°17' E 139°41'0 0.0
2018-Apr-16 18:01N 35°17' E 139°41'0 0.0
2018-Apr-16 17:31N 35°17' E 139°41'0 0.0
2018-Apr-16 17:00N 35°17' E 139°41'0 0.0
2018-Apr-16 16:31N 35°17' E 139°41'0 0.0
2018-Apr-16 16:00N 35°17' E 139°41'0 0.0
2018-Apr-16 15:30N 35°17' E 139°41'0 0.0
2018-Apr-16 15:00N 35°17' E 139°41'0 0.0
2018-Apr-16 14:30N 35°17' E 139°41'0 0.0
2018-Apr-16 14:00N 35°17' E 139°41'0 0.0
2018-Apr-16 13:30N 35°17' E 139°41'0 0.0
2018-Apr-16 13:00N 35°17' E 139°41'0 0.0
2018-Apr-16 12:30N 35°17' E 139°41'2 4.8
2018-Apr-16 11:59N 35°19' E 139°42'3 6.6
2018-Apr-16 11:31N 35°17' E 139°45'611.0
2018-Apr-16 11:00N 35°12' E 139°47'1 2.0
2018-Apr-16 10:30N 35°12' E 139°46'511.1
2018-Apr-16 10:01N 35°17' E 139°44'3 5.7
2018-Apr-16 09:30N 35°17' E 139°41'0 0.0
2018-Apr-16 09:00N 35°17' E 139°41'0 0.0
2018-Apr-16 08:30N 35°17' E 139°41'0 0.0
2018-Apr-16 08:00N 35°17' E 139°41'0 0.0
2018-Apr-16 07:30N 35°17' E 139°41'0 0.0
2018-Apr-16 07:00N 35°17' E 139°41'0 0.0
2018-Apr-16 06:30N 35°17' E 139°41'0 0.0
2018-Apr-16 06:00N 35°17' E 139°41'2 3.5
2018-Apr-16 05:30N 35°19' E 139°40'1 1.6
2018-Apr-16 05:01N 35°19' E 139°39'1 2.0
2018-Apr-16 04:30N 35°19' E 139°40'0 0.2
2018-Apr-16 04:00N 35°19' E 139°40'3 6.3
2018-Apr-16 03:31N 35°22' E 139°43'3 6.0
2018-Apr-16 03:00N 35°23' E 139°46'5 9.0
2018-Apr-16 02:30N 35°18' E 139°44'611.6
2018-Apr-16 02:01N 35°13' E 139°47'3 6.5
2018-Apr-16 01:30N 35°10' E 139°47'3 6.4
2018-Apr-16 01:00N 35°12' E 139°45'2 3.2
2018-Apr-16 00:30N 35°13' E 139°43'0 0.0
2018-Apr-16 00:00N 35°13' E 139°43'0 0.0
2018-Apr-15 23:30N 35°13' E 139°43'0 0.0
2018-Apr-15 23:00N 35°13' E 139°43'3 5.6
2018-Apr-15 22:30N 35°12' E 139°46'611.0
2018-Apr-15 22:00N 35°18' E 139°44'713.1
2018-Apr-15 21:30N 35°24' E 139°42'2 4.9
2018-Apr-15 21:00N 35°26' E 139°42'5 9.8
2018-Apr-15 20:30N 35°21' E 139°41'4 8.6
2018-Apr-15 20:01N 35°17' E 139°41'0 0.1
2018-Apr-15 19:30N 35°17' E 139°41'0 0.0
2018-Apr-15 19:00N 35°17' E 139°41'0 0.0
2018-Apr-15 18:30N 35°17' E 139°41'0 0.0
2018-Apr-15 18:00N 35°17' E 139°41'0 0.0
2018-Apr-15 17:30N 35°17' E 139°41'0 0.0
2018-Apr-15 17:00N 35°17' E 139°41'0 0.0
2018-Apr-15 16:30N 35°17' E 139°41'0 0.0
2018-Apr-15 16:00N 35°17' E 139°41'0 0.0
2018-Apr-15 15:30N 35°17' E 139°41'0 0.0
2018-Apr-15 15:00N 35°17' E 139°41'0 0.0
2018-Apr-15 14:31N 35°17' E 139°41'0 0.0
2018-Apr-15 14:00N 35°17' E 139°41'0 0.0
2018-Apr-15 13:30N 35°17' E 139°41'0 0.0
2018-Apr-15 13:00N 35°17' E 139°41'0 0.0
2018-Apr-15 12:31N 35°17' E 139°41'0 0.0
2018-Apr-15 12:01N 35°17' E 139°41'4 7.8
2018-Apr-15 11:30N 35°21' E 139°42'510.1
2018-Apr-15 11:00N 35°24' E 139°46'5 9.1
2018-Apr-15 10:30N 35°20' E 139°44'611.5
2018-Apr-15 10:00N 35°15' E 139°47'5 9.6
2018-Apr-15 09:30N 35°10' E 139°47'4 7.3
2018-Apr-15 09:00N 35°13' E 139°44'1 1.9
2018-Apr-15 08:30N 35°14' E 139°45'4 9.0
2018-Apr-15 08:01N 35°18' E 139°42'1 2.2
2018-Apr-15 07:30N 35°17' E 139°41'0 0.0
2018-Apr-15 07:00N 35°17' E 139°41'0 0.0
2018-Apr-15 06:30N 35°17' E 139°41'  

Dump ship's entire track history